Time,TemperatureF,DewpointF,PressureIn,WindDirection,WindDirectionDegrees,WindSpeedMPH,WindSpeedGustMPH,Humidity,HourlyPrecipIn,Conditions,Clouds,dailyrainin,SoftwareType,DateUTC
2013-10-16 00:05:00,56.7,52.0,30.16,SE,130,1.0,1.0,83,0.00,,,0.00,weatherlink.com 1.10,2013-10-16 04:05:00,
2013-10-16 00:22:00,56.5,52.0,30.16,SE,130,0.0,0.0,84,0.00,,,0.00,weatherlink.com 1.10,2013-10-16 04:22:00,
2013-10-16 00:35:00,56.1,51.0,30.16,SE,130,0.0,1.0,83,0.00,,,0.00,weatherlink.com 1.10,2013-10-16 04:35:00,
2013-10-16 00:50:00,56.0,51.0,30.15,SE,130,0.0,0.0,82,0.00,,,0.00,weatherlink.com 1.10,2013-10-16 04:50:00,
2013-10-16 01:05:00,55.7,50.0,30.15,SE,130,0.0,1.0,81,0.00,,,0.00,weatherlink.com 1.10,2013-10-16 05:05:00,
2013-10-16 01:20:00,55.9,50.0,30.16,SE,130,0.0,2.0,79,0.00,,,0.00,weatherlink.com 1.10,2013-10-16 05:20:00,
2013-10-16 01:35:00,55.4,50.0,30.16,SE,130,0.0,1.0,81,0.00,,,0.00,weatherlink.com 1.10,2013-10-16 05:35:00,
2013-10-16 01:50:00,55.1,50.0,30.16,SE,130,0.0,0.0,84,0.00,,,0.00,weatherlink.com 1.10,2013-10-16 05:50:00,
2013-10-16 02:05:00,54.8,51.0,30.15,SE,130,0.0,0.0,86,0.00,,,0.00,weatherlink.com 1.10,2013-10-16 06:05:00,
2013-10-16 02:20:00,54.4,50.0,30.15,SE,130,0.0,0.0,86,0.00,,,0.00,weatherlink.com 1.10,2013-10-16 06:20:00,
2013-10-16 02:35:00,54.2,50.0,30.15,SE,130,0.0,0.0,86,0.00,,,0.00,weatherlink.com 1.10,2013-10-16 06:35:00,
2013-10-16 02:50:00,54.0,50.0,30.14,SE,130,0.0,0.0,87,0.00,,,0.00,weatherlink.com 1.10,2013-10-16 06:50:00,
2013-10-16 03:05:00,54.0,51.0,30.14,SE,130,0.0,0.0,88,0.00,,,0.00,weatherlink.com 1.10,2013-10-16 07:05:00,
2013-10-16 03:20:00,53.6,50.0,30.14,SE,130,0.0,0.0,88,0.00,,,0.00,weatherlink.com 1.10,2013-10-16 07:20:00,
2013-10-16 03:35:00,53.6,51.0,30.14,SE,130,0.0,0.0,89,0.00,,,0.00,weatherlink.com 1.10,2013-10-16 07:35:00,
2013-10-16 03:50:00,53.6,51.0,30.14,SE,130,0.0,0.0,89,0.00,,,0.00,weatherlink.com 1.10,2013-10-16 07:50:00,
2013-10-16 04:05:00,53.6,51.0,30.14,SE,130,0.0,1.0,89,0.00,,,0.00,weatherlink.com 1.10,2013-10-16 08:05:00,
2013-10-16 04:20:00,53.5,50.0,30.14,SE,130,0.0,0.0,89,0.00,,,0.00,weatherlink.com 1.10,2013-10-16 08:20:00,
2013-10-16 04:35:00,53.4,51.0,30.14,SE,130,0.0,0.0,90,0.00,,,0.00,weatherlink.com 1.10,2013-10-16 08:35:00,
2013-10-16 04:50:00,53.2,50.0,30.14,SE,130,0.0,0.0,90,0.00,,,0.00,weatherlink.com 1.10,2013-10-16 08:50:00,
2013-10-16 05:05:00,53.1,50.0,30.13,SE,130,0.0,0.0,90,0.00,,,0.00,weatherlink.com 1.10,2013-10-16 09:05:00,
2013-10-16 05:20:00,53.1,51.0,30.13,SE,130,0.0,0.0,91,0.00,,,0.00,weatherlink.com 1.10,2013-10-16 09:20:00,
2013-10-16 05:35:00,53.0,51.0,30.12,SE,130,0.0,0.0,91,0.00,,,0.00,weatherlink.com 1.10,2013-10-16 09:35:00,
2013-10-16 05:50:00,53.0,51.0,30.13,SE,130,0.0,0.0,91,0.00,,,0.00,weatherlink.com 1.10,2013-10-16 09:50:00,
2013-10-16 06:05:00,53.0,51.0,30.13,SE,130,0.0,0.0,92,0.00,,,0.00,weatherlink.com 1.10,2013-10-16 10:05:00,
2013-10-16 06:20:00,52.8,51.0,30.12,SE,130,0.0,0.0,92,0.00,,,0.00,weatherlink.com 1.10,2013-10-16 10:20:00,
2013-10-16 06:35:00,52.7,51.0,30.12,SE,130,0.0,0.0,92,0.00,,,0.00,weatherlink.com 1.10,2013-10-16 10:35:00,
2013-10-16 06:50:00,52.8,51.0,30.12,SE,130,0.0,0.0,92,0.00,,,0.00,weatherlink.com 1.10,2013-10-16 10:50:00,
2013-10-16 07:05:00,52.7,51.0,30.12,SE,130,0.0,0.0,92,0.00,,,0.00,weatherlink.com 1.10,2013-10-16 11:05:00,
2013-10-16 07:20:00,52.7,51.0,30.12,SE,130,0.0,0.0,92,0.00,,,0.00,weatherlink.com 1.10,2013-10-16 11:20:00,
2013-10-16 07:37:00,52.8,51.0,30.12,SE,130,0.0,0.0,92,0.00,,,0.00,weatherlink.com 1.10,2013-10-16 11:37:00,
2013-10-16 07:50:00,53.0,51.0,30.11,SE,130,0.0,0.0,92,0.00,,,0.00,weatherlink.com 1.10,2013-10-16 11:50:00,
2013-10-16 08:05:00,52.7,51.0,30.10,SE,130,0.0,0.0,92,0.00,,,0.00,weatherlink.com 1.10,2013-10-16 12:05:00,
2013-10-16 08:20:00,52.5,50.0,30.11,SE,130,0.0,0.0,92,0.00,,,0.00,weatherlink.com 1.10,2013-10-16 12:20:00,
2013-10-16 08:35:00,53.2,51.0,30.11,SE,130,0.0,0.0,91,0.00,,,0.00,weatherlink.com 1.10,2013-10-16 12:35:00,
2013-10-16 08:50:00,55.3,52.0,30.10,SE,132,0.0,1.0,87,0.00,,,0.00,weatherlink.com 1.10,2013-10-16 12:50:00,
2013-10-16 09:05:00,55.5,51.0,30.10,SE,133,0.0,1.0,86,0.00,,,0.00,weatherlink.com 1.10,2013-10-16 13:05:00,
2013-10-16 09:20:00,56.1,52.0,30.10,SE,133,0.0,0.0,86,0.00,,,0.00,weatherlink.com 1.10,2013-10-16 13:20:00,
2013-10-16 09:35:00,56.7,52.0,30.09,East,81,0.0,7.0,83,0.00,,,0.00,weatherlink.com 1.10,2013-10-16 13:35:00,
2013-10-16 09:50:00,57.1,52.0,30.09,ESE,111,0.0,3.0,83,0.00,,,0.00,weatherlink.com 1.10,2013-10-16 13:50:00,
2013-10-16 10:05:00,57.1,51.0,30.09,East,80,0.0,5.0,81,0.00,,,0.00,weatherlink.com 1.10,2013-10-16 14:05:00,
2013-10-16 10:21:00,57.0,52.0,30.08,NE,55,0.0,6.0,82,0.00,,,0.00,weatherlink.com 1.10,2013-10-16 14:21:00,
2013-10-16 10:36:00,57.3,52.0,30.08,ESE,119,0.0,4.0,81,0.00,,,0.00,weatherlink.com 1.10,2013-10-16 14:36:00,
2013-10-16 10:51:00,57.4,52.0,30.07,East,81,0.0,5.0,81,0.00,,,0.00,weatherlink.com 1.10,2013-10-16 14:51:00,
2013-10-16 11:06:00,57.9,51.0,30.07,SE,134,0.0,3.0,79,0.00,,,0.00,weatherlink.com 1.10,2013-10-16 15:06:00,
2013-10-16 11:21:00,57.7,51.0,30.07,SSW,196,2.0,6.0,79,0.00,,,0.00,weatherlink.com 1.10,2013-10-16 15:21:00,
2013-10-16 11:36:00,57.5,51.0,30.06,ENE,67,0.0,7.0,79,0.00,,,0.00,weatherlink.com 1.10,2013-10-16 15:36:00,
2013-10-16 11:51:00,57.1,51.0,30.06,ESE,119,0.0,4.0,79,0.00,,,0.00,weatherlink.com 1.10,2013-10-16 15:51:00,
2013-10-16 12:06:00,56.8,51.0,30.06,SE,136,0.0,4.0,81,0.00,,,0.00,weatherlink.com 1.10,2013-10-16 16:06:00,
2013-10-16 12:21:00,56.9,51.0,30.05,SE,125,5.0,6.0,80,0.00,,,0.00,weatherlink.com 1.10,2013-10-16 16:21:00,
2013-10-16 12:36:00,57.2,51.0,30.05,ESE,106,0.0,4.0,80,0.00,,,0.00,weatherlink.com 1.10,2013-10-16 16:36:00,
2013-10-16 12:51:00,58.0,51.0,30.05,ESE,117,0.0,4.0,78,0.00,,,0.00,weatherlink.com 1.10,2013-10-16 16:51:00,
2013-10-16 13:06:00,58.4,51.0,30.03,SSW,204,0.0,5.0,77,0.00,,,0.00,weatherlink.com 1.10,2013-10-16 17:06:00,
2013-10-16 13:21:00,58.7,51.0,30.02,ESE,119,0.0,3.0,75,0.00,,,0.00,weatherlink.com 1.10,2013-10-16 17:21:00,
2013-10-16 13:36:00,58.5,51.0,30.02,ENE,75,0.0,6.0,75,0.00,,,0.00,weatherlink.com 1.10,2013-10-16 17:36:00,
2013-10-16 13:52:00,59.1,51.0,30.01,East,90,0.0,7.0,74,0.00,,,0.00,weatherlink.com 1.10,2013-10-16 17:52:00,
2013-10-16 14:06:00,59.9,50.0,30.00,SSE,161,1.0,7.0,70,0.00,,,0.00,weatherlink.com 1.10,2013-10-16 18:06:00,
2013-10-16 14:21:00,59.8,49.0,30.00,East,90,0.0,7.0,67,0.00,,,0.00,weatherlink.com 1.10,2013-10-16 18:21:00,
2013-10-16 14:36:00,60.8,50.0,30.00,ESE,117,0.0,6.0,67,0.00,,,0.00,weatherlink.com 1.10,2013-10-16 18:36:00,
2013-10-16 14:51:00,60.7,49.0,29.99,SE,130,3.0,7.0,66,0.00,,,0.00,weatherlink.com 1.10,2013-10-16 18:51:00,
2013-10-16 15:06:00,60.5,49.0,29.98,East,92,0.0,8.0,67,0.00,,,0.00,weatherlink.com 1.10,2013-10-16 19:06:00,
2013-10-16 15:21:00,60.4,50.0,29.98,East,94,0.0,6.0,69,0.00,,,0.00,weatherlink.com 1.10,2013-10-16 19:21:00,
2013-10-16 15:36:00,60.0,50.0,29.97,East,80,0.0,7.0,70,0.00,,,0.00,weatherlink.com 1.10,2013-10-16 19:36:00,
2013-10-16 15:51:00,59.6,51.0,29.97,East,90,0.0,5.0,72,0.00,,,0.00,weatherlink.com 1.10,2013-10-16 19:51:00,
2013-10-16 16:06:00,59.5,51.0,29.97,ESE,116,0.0,5.0,73,0.00,,,0.00,weatherlink.com 1.10,2013-10-16 20:06:00,
2013-10-16 16:21:00,59.2,51.0,29.97,ENE,70,0.0,4.0,74,0.00,,,0.00,weatherlink.com 1.10,2013-10-16 20:21:00,
2013-10-16 16:36:00,58.9,51.0,29.96,ENE,73,0.0,5.0,75,0.00,,,0.00,weatherlink.com 1.10,2013-10-16 20:36:00,
2013-10-16 16:51:00,58.7,51.0,29.96,ESE,108,0.0,1.0,76,0.00,,,0.00,weatherlink.com 1.10,2013-10-16 20:51:00,
2013-10-16 17:06:00,58.3,51.0,29.96,ESE,108,0.0,1.0,76,0.00,,,0.00,weatherlink.com 1.10,2013-10-16 21:06:00,
2013-10-16 17:21:00,58.1,51.0,29.96,ESE,108,0.0,1.0,77,0.00,,,0.00,weatherlink.com 1.10,2013-10-16 21:21:00,
2013-10-16 17:36:00,57.7,51.0,29.95,ESE,108,0.0,0.0,79,0.00,,,0.00,weatherlink.com 1.10,2013-10-16 21:36:00,
2013-10-16 17:51:00,57.1,52.0,29.96,ESE,108,0.0,0.0,82,0.00,,,0.00,weatherlink.com 1.10,2013-10-16 21:51:00,
2013-10-16 18:06:00,56.0,51.0,29.95,ESE,108,0.0,0.0,83,0.00,,,0.00,weatherlink.com 1.10,2013-10-16 22:06:00,
2013-10-16 18:21:00,55.1,51.0,29.98,ESE,108,0.0,0.0,87,0.00,,,0.00,weatherlink.com 1.10,2013-10-16 22:21:00,
2013-10-16 18:36:00,54.8,51.0,29.95,ESE,108,0.0,1.0,87,0.00,,,0.00,weatherlink.com 1.10,2013-10-16 22:36:00,
2013-10-16 18:51:00,54.6,51.0,29.94,ESE,107,0.0,1.0,87,0.00,,,0.00,weatherlink.com 1.10,2013-10-16 22:51:00,
2013-10-16 19:06:00,54.5,51.0,29.95,ESE,108,0.0,1.0,87,0.00,,,0.00,weatherlink.com 1.10,2013-10-16 23:06:00,
2013-10-16 19:21:00,53.8,51.0,29.95,ESE,108,0.0,0.0,89,0.00,,,0.00,weatherlink.com 1.10,2013-10-16 23:21:00,
2013-10-16 19:36:00,53.2,50.0,29.95,ESE,108,0.0,0.0,90,0.00,,,0.00,weatherlink.com 1.10,2013-10-16 23:36:00,
2013-10-16 19:51:00,52.8,50.0,29.94,ESE,108,0.0,0.0,91,0.00,,,0.00,weatherlink.com 1.10,2013-10-16 23:51:00,
2013-10-16 20:06:00,52.4,50.0,29.94,ESE,108,0.0,0.0,91,0.00,,,0.00,weatherlink.com 1.10,2013-10-17 00:06:00,
2013-10-16 20:21:00,51.9,50.0,29.94,ESE,108,0.0,0.0,92,0.00,,,0.00,weatherlink.com 1.10,2013-10-17 00:21:00,
2013-10-16 20:37:00,51.4,50.0,29.93,ESE,108,0.0,0.0,93,0.00,,,0.00,weatherlink.com 1.10,2013-10-17 00:37:00,
2013-10-16 20:52:00,50.9,49.0,29.94,ESE,108,0.0,0.0,93,0.00,,,0.00,weatherlink.com 1.10,2013-10-17 00:52:00,
2013-10-16 21:08:00,50.3,49.0,29.93,ESE,108,0.0,0.0,94,0.00,,,0.00,weatherlink.com 1.10,2013-10-17 01:08:00,
2013-10-16 21:22:00,49.7,48.0,29.93,ESE,108,0.0,0.0,94,0.00,,,0.00,weatherlink.com 1.10,2013-10-17 01:22:00,
2013-10-16 21:37:00,49.4,48.0,29.94,ESE,108,0.0,0.0,95,0.00,,,0.00,weatherlink.com 1.10,2013-10-17 01:37:00,
2013-10-16 21:52:00,49.5,48.0,29.93,ESE,108,0.0,0.0,95,0.00,,,0.00,weatherlink.com 1.10,2013-10-17 01:52:00,
2013-10-16 22:07:00,49.3,48.0,29.93,ESE,108,0.0,0.0,95,0.00,,,0.00,weatherlink.com 1.10,2013-10-17 02:07:00,
2013-10-16 22:22:00,48.7,47.0,29.92,ESE,108,0.0,0.0,95,0.00,,,0.00,weatherlink.com 1.10,2013-10-17 02:22:00,
2013-10-16 22:37:00,48.1,47.0,29.91,ESE,108,0.0,0.0,95,0.00,,,0.00,weatherlink.com 1.10,2013-10-17 02:37:00,
2013-10-16 22:52:00,47.9,47.0,29.91,ESE,108,0.0,0.0,96,0.00,,,0.00,weatherlink.com 1.10,2013-10-17 02:52:00,
2013-10-16 23:07:00,47.8,47.0,29.90,ESE,108,0.0,0.0,96,0.00,,,0.00,weatherlink.com 1.10,2013-10-17 03:07:00,
2013-10-16 23:22:00,47.7,47.0,29.90,ESE,108,0.0,0.0,96,0.00,,,0.00,weatherlink.com 1.10,2013-10-17 03:22:00,
2013-10-16 23:37:00,47.5,47.0,29.90,ESE,108,0.0,0.0,96,0.00,,,0.00,weatherlink.com 1.10,2013-10-17 03:37:00,
2013-10-16 23:52:00,47.5,47.0,29.89,ESE,108,0.0,0.0,96,0.00,,,0.00,weatherlink.com 1.10,2013-10-17 03:52:00,